This is the latest recevied weather packets stored in our database for station/object CE3PA-5. If no packets are shown the sender has not sent any weather packets the latest 10 day(s).
| Time | Temp. | Humidity | Pressure | Rain* | Wind** | Luminosity | Snow |
|---|---|---|---|---|---|---|---|
| 1777659945 | 15.56° C | 22% | 757.5 hPa | - | - | - | - |
| 1777658144 | 15.56° C | 22% | 757.5 hPa | - | - | - | - |
| 1777657249 | 15° C | 22% | 757.5 hPa | - | - | - | - |
| 1777655448 | 15° C | 22% | 757.6 hPa | - | - | - | - |
| 1777653648 | 16.11° C | 20% | 757.6 hPa | - | - | - | - |
| 1777652747 | 17.22° C | 20% | 757.6 hPa | - | - | - | - |
| 1777651847 | 19.44° C | 19% | 757.7 hPa | - | - | - | - |
| 1777648247 | 21.11° C | 19% | 757.5 hPa | - | - | - | - |
| 1777647347 | 18.33° C | 19% | 757.6 hPa | - | - | - | - |
| 1777644646 | 18.33° C | 19% | 757.3 hPa | - | - | - | - |
| 1777640144 | 13.89° C | 21% | 756.6 hPa | - | - | - | - |
| 1777636544 | 6.11° C | 23% | 755.9 hPa | - | - | - | - |
| 1777635647 | 6.11° C | 23% | 755.8 hPa | - | - | - | - |
| 1777634747 | 6.11° C | 23% | 755.7 hPa | - | - | - | - |
| 1777632047 | 6.11° C | 23% | 755.5 hPa | - | - | - | - |
| 1777631147 | 6.11° C | 23% | 755.4 hPa | - | - | - | - |
| 1777629347 | 6.11° C | 23% | 755.5 hPa | - | - | - | - |
| 1777628446 | 6.11° C | 23% | 755.3 hPa | - | - | - | - |
| 1777627546 | 6.11° C | 23% | 755.3 hPa | - | - | - | - |
| 1777626646 | 6.67° C | 23% | 755.2 hPa | - | - | - | - |
| 1777625745 | 7.22° C | 23% | 755.2 hPa | - | - | - | - |
| 1777624845 | 7.22° C | 23% | 755.1 hPa | - | - | - | - |
| 1777623945 | 7.78° C | 23% | 755 hPa | - | - | - | - |
| 1777620344 | 7.78° C | 23% | 754.7 hPa | - | - | - | - |
| 1777619444 | 8.33° C | 23% | 754.7 hPa | - | - | - | - |
* Rain since midnight (hover to see other rain measurements)
** Current wind speed in m/s (hover to see current wind gust speed)